sensor_id;sensor_type;location;lat;lon;timestamp;temperature;humidity
16827;DHT22;8530;49.540;8.576;2022-11-20T00:01:49;4.70;99.90
16827;DHT22;8530;49.540;8.576;2022-11-20T00:04:16;4.70;99.90
16827;DHT22;8530;49.540;8.576;2022-11-20T00:06:43;4.70;99.90
16827;DHT22;8530;49.540;8.576;2022-11-20T00:09:10;4.70;99.90
16827;DHT22;8530;49.540;8.576;2022-11-20T00:11:37;4.70;99.90
16827;DHT22;8530;49.540;8.576;2022-11-20T00:14:04;4.70;99.90
16827;DHT22;8530;49.540;8.576;2022-11-20T00:16:31;4.70;99.90
16827;DHT22;8530;49.540;8.576;2022-11-20T00:19:01;4.70;99.90
16827;DHT22;8530;49.540;8.576;2022-11-20T00:21:28;4.70;99.90
16827;DHT22;8530;49.540;8.576;2022-11-20T00:23:57;4.70;99.90
16827;DHT22;8530;49.540;8.576;2022-11-20T00:26:26;4.70;99.90
16827;DHT22;8530;49.540;8.576;2022-11-20T00:28:54;4.70;99.90
16827;DHT22;8530;49.540;8.576;2022-11-20T00:31:22;4.70;99.90
16827;DHT22;8530;49.540;8.576;2022-11-20T00:33:49;4.70;99.90
16827;DHT22;8530;49.540;8.576;2022-11-20T00:36:18;4.70;99.90
16827;DHT22;8530;49.540;8.576;2022-11-20T00:38:46;4.70;99.90
16827;DHT22;8530;49.540;8.576;2022-11-20T00:41:18;4.70;99.90
16827;DHT22;8530;49.540;8.576;2022-11-20T00:43:44;4.70;99.90
16827;DHT22;8530;49.540;8.576;2022-11-20T00:46:13;4.70;99.90
16827;DHT22;8530;49.540;8.576;2022-11-20T00:48:40;4.70;99.90
16827;DHT22;8530;49.540;8.576;2022-11-20T00:51:07;4.70;99.90
16827;DHT22;8530;49.540;8.576;2022-11-20T00:53:36;4.70;99.90
16827;DHT22;8530;49.540;8.576;2022-11-20T00:56:05;4.70;99.90
16827;DHT22;8530;49.540;8.576;2022-11-20T00:58:34;4.70;99.90
16827;DHT22;8530;49.540;8.576;2022-11-20T01:01:01;4.70;99.90
16827;DHT22;8530;49.540;8.576;2022-11-20T01:03:31;4.70;99.90
16827;DHT22;8530;49.540;8.576;2022-11-20T01:06:00;4.70;99.90
16827;DHT22;8530;49.540;8.576;2022-11-20T01:08:30;4.80;99.90
16827;DHT22;8530;49.540;8.576;2022-11-20T01:11:00;4.80;99.90
16827;DHT22;8530;49.540;8.576;2022-11-20T01:13:29;4.80;99.90
16827;DHT22;8530;49.540;8.576;2022-11-20T01:16:06;4.70;99.90
16827;DHT22;8530;49.540;8.576;2022-11-20T01:18:33;4.80;99.90
16827;DHT22;8530;49.540;8.576;2022-11-20T01:21:01;4.70;99.90
16827;DHT22;8530;49.540;8.576;2022-11-20T01:23:31;4.70;99.90
16827;DHT22;8530;49.540;8.576;2022-11-20T01:26:01;4.70;99.90
16827;DHT22;8530;49.540;8.576;2022-11-20T01:28:29;4.60;99.90
16827;DHT22;8530;49.540;8.576;2022-11-20T01:30:56;4.70;99.90
16827;DHT22;8530;49.540;8.576;2022-11-20T01:33:23;4.70;99.90
16827;DHT22;8530;49.540;8.576;2022-11-20T01:35:50;4.70;99.90
16827;DHT22;8530;49.540;8.576;2022-11-20T01:38:17;4.70;99.90
16827;DHT22;8530;49.540;8.576;2022-11-20T01:40:45;4.70;99.90
16827;DHT22;8530;49.540;8.576;2022-11-20T01:43:17;4.60;99.90
16827;DHT22;8530;49.540;8.576;2022-11-20T01:46:15;4.60;99.90
16827;DHT22;8530;49.540;8.576;2022-11-20T01:48:49;4.60;99.90
16827;DHT22;8530;49.540;8.576;2022-11-20T01:51:21;4.50;99.90
16827;DHT22;8530;49.540;8.576;2022-11-20T01:53:52;4.50;99.90
16827;DHT22;8530;49.540;8.576;2022-11-20T01:56:20;4.50;99.90
16827;DHT22;8530;49.540;8.576;2022-11-20T01:58:51;4.50;99.90
16827;DHT22;8530;49.540;8.576;2022-11-20T02:01:20;4.50;99.90
16827;DHT22;8530;49.540;8.576;2022-11-20T02:03:48;4.50;99.90
16827;DHT22;8530;49.540;8.576;2022-11-20T02:06:19;4.60;99.90
16827;DHT22;8530;49.540;8.576;2022-11-20T02:08:47;4.60;99.90
16827;DHT22;8530;49.540;8.576;2022-11-20T02:11:14;4.60;99.90
16827;DHT22;8530;49.540;8.576;2022-11-20T02:13:41;4.60;99.90
16827;DHT22;8530;49.540;8.576;2022-11-20T02:16:21;4.60;99.90
16827;DHT22;8530;49.540;8.576;2022-11-20T02:18:50;4.60;99.90
16827;DHT22;8530;49.540;8.576;2022-11-20T02:21:39;4.60;99.90
16827;DHT22;8530;49.540;8.576;2022-11-20T02:24:12;4.60;99.90
16827;DHT22;8530;49.540;8.576;2022-11-20T02:26:48;4.60;99.90
16827;DHT22;8530;49.540;8.576;2022-11-20T02:29:19;4.70;99.90
16827;DHT22;8530;49.540;8.576;2022-11-20T02:31:50;4.70;99.90
16827;DHT22;8530;49.540;8.576;2022-11-20T02:34:17;4.70;99.90
16827;DHT22;8530;49.540;8.576;2022-11-20T02:36:44;4.70;99.90
16827;DHT22;8530;49.540;8.576;2022-11-20T02:39:15;4.70;99.90
16827;DHT22;8530;49.540;8.576;2022-11-20T02:41:44;4.70;99.90
16827;DHT22;8530;49.540;8.576;2022-11-20T02:44:10;4.60;99.90
16827;DHT22;8530;49.540;8.576;2022-11-20T02:46:38;4.60;99.90
16827;DHT22;8530;49.540;8.576;2022-11-20T02:49:04;4.60;99.90
16827;DHT22;8530;49.540;8.576;2022-11-20T02:51:32;4.60;99.90
16827;DHT22;8530;49.540;8.576;2022-11-20T02:53:59;4.70;99.90
16827;DHT22;8530;49.540;8.576;2022-11-20T02:56:27;4.70;99.90
16827;DHT22;8530;49.540;8.576;2022-11-20T02:58:54;4.70;99.90
16827;DHT22;8530;49.540;8.576;2022-11-20T03:01:23;4.70;99.90
16827;DHT22;8530;49.540;8.576;2022-11-20T03:03:50;4.70;99.90
16827;DHT22;8530;49.540;8.576;2022-11-20T03:06:19;4.80;99.90
16827;DHT22;8530;49.540;8.576;2022-11-20T03:08:47;4.80;99.90
16827;DHT22;8530;49.540;8.576;2022-11-20T03:11:13;4.80;99.90
16827;DHT22;8530;49.540;8.576;2022-11-20T03:13:41;4.90;99.90
16827;DHT22;8530;49.540;8.576;2022-11-20T03:16:11;4.90;99.90
16827;DHT22;8530;49.540;8.576;2022-11-20T03:18:38;4.90;99.90
16827;DHT22;8530;49.540;8.576;2022-11-20T03:21:05;4.90;99.90
16827;DHT22;8530;49.540;8.576;2022-11-20T03:23:33;5.00;99.90
16827;DHT22;8530;49.540;8.576;2022-11-20T03:26:10;5.00;99.90
16827;DHT22;8530;49.540;8.576;2022-11-20T03:28:38;5.00;99.90
16827;DHT22;8530;49.540;8.576;2022-11-20T03:31:08;5.00;99.90
16827;DHT22;8530;49.540;8.576;2022-11-20T03:33:34;5.00;99.90
16827;DHT22;8530;49.540;8.576;2022-11-20T03:36:02;5.10;99.90
16827;DHT22;8530;49.540;8.576;2022-11-20T03:38:30;5.10;99.90
16827;DHT22;8530;49.540;8.576;2022-11-20T03:41:01;5.10;99.90
16827;DHT22;8530;49.540;8.576;2022-11-20T03:43:28;5.20;99.90
16827;DHT22;8530;49.540;8.576;2022-11-20T03:45:55;5.20;99.90
16827;DHT22;8530;49.540;8.576;2022-11-20T03:48:24;5.20;99.90
16827;DHT22;8530;49.540;8.576;2022-11-20T03:50:52;5.20;99.90
16827;DHT22;8530;49.540;8.576;2022-11-20T03:53:19;5.20;99.90
16827;DHT22;8530;49.540;8.576;2022-11-20T03:55:50;5.20;99.90
16827;DHT22;8530;49.540;8.576;2022-11-20T03:58:17;5.20;99.90
16827;DHT22;8530;49.540;8.576;2022-11-20T04:00:44;5.20;99.90
16827;DHT22;8530;49.540;8.576;2022-11-20T04:03:11;5.20;99.90
16827;DHT22;8530;49.540;8.576;2022-11-20T04:05:39;5.20;99.90
16827;DHT22;8530;49.540;8.576;2022-11-20T04:08:06;5.20;99.90
16827;DHT22;8530;49.540;8.576;2022-11-20T04:10:32;5.20;99.90
16827;DHT22;8530;49.540;8.576;2022-11-20T04:12:59;5.20;99.90
16827;DHT22;8530;49.540;8.576;2022-11-20T04:15:26;5.20;99.90
16827;DHT22;8530;49.540;8.576;2022-11-20T04:17:54;5.20;99.90
16827;DHT22;8530;49.540;8.576;2022-11-20T04:20:21;5.20;99.90
16827;DHT22;8530;49.540;8.576;2022-11-20T04:22:49;5.10;99.90
16827;DHT22;8530;49.540;8.576;2022-11-20T04:25:16;5.10;99.90
16827;DHT22;8530;49.540;8.576;2022-11-20T04:27:42;5.10;99.90
16827;DHT22;8530;49.540;8.576;2022-11-20T04:30:10;5.10;99.90
16827;DHT22;8530;49.540;8.576;2022-11-20T04:32:37;5.10;99.90
16827;DHT22;8530;49.540;8.576;2022-11-20T04:35:04;5.10;99.90
16827;DHT22;8530;49.540;8.576;2022-11-20T04:37:33;5.00;99.90
16827;DHT22;8530;49.540;8.576;2022-11-20T04:40:01;5.00;99.90
16827;DHT22;8530;49.540;8.576;2022-11-20T04:42:28;5.00;99.90
16827;DHT22;8530;49.540;8.576;2022-11-20T04:44:54;5.00;99.90
16827;DHT22;8530;49.540;8.576;2022-11-20T04:47:22;5.00;99.90
16827;DHT22;8530;49.540;8.576;2022-11-20T04:49:48;4.90;99.90
16827;DHT22;8530;49.540;8.576;2022-11-20T04:52:15;5.00;99.90
16827;DHT22;8530;49.540;8.576;2022-11-20T04:54:42;5.00;99.90
16827;DHT22;8530;49.540;8.576;2022-11-20T04:57:10;5.00;99.90
16827;DHT22;8530;49.540;8.576;2022-11-20T04:59:40;5.00;99.90
16827;DHT22;8530;49.540;8.576;2022-11-20T05:02:06;5.00;99.90
16827;DHT22;8530;49.540;8.576;2022-11-20T05:04:33;5.00;99.90
16827;DHT22;8530;49.540;8.576;2022-11-20T05:07:00;5.00;99.90
16827;DHT22;8530;49.540;8.576;2022-11-20T05:09:27;5.00;99.90
16827;DHT22;8530;49.540;8.576;2022-11-20T05:11:54;5.00;99.90
16827;DHT22;8530;49.540;8.576;2022-11-20T05:14:23;5.00;99.90
16827;DHT22;8530;49.540;8.576;2022-11-20T05:16:49;5.10;99.90
16827;DHT22;8530;49.540;8.576;2022-11-20T05:19:17;5.10;99.90
16827;DHT22;8530;49.540;8.576;2022-11-20T05:21:43;5.10;99.90
16827;DHT22;8530;49.540;8.576;2022-11-20T05:24:10;5.10;99.90
16827;DHT22;8530;49.540;8.576;2022-11-20T05:26:37;5.10;99.90
16827;DHT22;8530;49.540;8.576;2022-11-20T05:29:04;5.20;99.90
16827;DHT22;8530;49.540;8.576;2022-11-20T05:31:32;5.20;99.90
16827;DHT22;8530;49.540;8.576;2022-11-20T05:33:59;5.20;99.90
16827;DHT22;8530;49.540;8.576;2022-11-20T05:36:25;5.20;99.90
16827;DHT22;8530;49.540;8.576;2022-11-20T05:38:55;5.20;99.90
16827;DHT22;8530;49.540;8.576;2022-11-20T05:41:22;5.20;99.90
16827;DHT22;8530;49.540;8.576;2022-11-20T05:43:50;5.20;99.90
16827;DHT22;8530;49.540;8.576;2022-11-20T05:46:19;5.20;99.90
16827;DHT22;8530;49.540;8.576;2022-11-20T05:48:47;5.30;99.90
16827;DHT22;8530;49.540;8.576;2022-11-20T05:51:15;5.30;99.90
16827;DHT22;8530;49.540;8.576;2022-11-20T05:53:43;5.20;99.90
16827;DHT22;8530;49.540;8.576;2022-11-20T05:56:12;5.30;99.90
16827;DHT22;8530;49.540;8.576;2022-11-20T05:58:40;5.30;99.90
16827;DHT22;8530;49.540;8.576;2022-11-20T06:01:10;5.30;99.90
16827;DHT22;8530;49.540;8.576;2022-11-20T06:03:38;5.30;99.90
16827;DHT22;8530;49.540;8.576;2022-11-20T06:06:07;5.30;99.90
16827;DHT22;8530;49.540;8.576;2022-11-20T06:08:34;5.40;99.90
16827;DHT22;8530;49.540;8.576;2022-11-20T06:11:04;5.30;99.90
16827;DHT22;8530;49.540;8.576;2022-11-20T06:13:31;5.40;99.90
16827;DHT22;8530;49.540;8.576;2022-11-20T06:15:58;5.30;99.90
16827;DHT22;8530;49.540;8.576;2022-11-20T06:18:26;5.30;99.90
16827;DHT22;8530;49.540;8.576;2022-11-20T06:21:00;5.30;99.90
16827;DHT22;8530;49.540;8.576;2022-11-20T06:23:29;5.30;99.90
16827;DHT22;8530;49.540;8.576;2022-11-20T06:25:56;5.40;99.90
16827;DHT22;8530;49.540;8.576;2022-11-20T06:28:23;5.40;99.90
16827;DHT22;8530;49.540;8.576;2022-11-20T06:30:51;5.30;99.90
16827;DHT22;8530;49.540;8.576;2022-11-20T06:33:18;5.40;99.90
16827;DHT22;8530;49.540;8.576;2022-11-20T06:35:44;5.30;99.90
16827;DHT22;8530;49.540;8.576;2022-11-20T06:38:11;5.40;99.90
16827;DHT22;8530;49.540;8.576;2022-11-20T06:40:41;5.40;99.90
16827;DHT22;8530;49.540;8.576;2022-11-20T06:43:08;5.40;99.90
16827;DHT22;8530;49.540;8.576;2022-11-20T06:45:35;5.40;99.90
16827;DHT22;8530;49.540;8.576;2022-11-20T06:48:03;5.40;99.90
16827;DHT22;8530;49.540;8.576;2022-11-20T06:50:30;5.40;99.90
16827;DHT22;8530;49.540;8.576;2022-11-20T06:52:59;5.40;99.90
16827;DHT22;8530;49.540;8.576;2022-11-20T06:55:26;5.50;99.90
16827;DHT22;8530;49.540;8.576;2022-11-20T06:57:56;5.50;99.90
16827;DHT22;8530;49.540;8.576;2022-11-20T07:00:22;5.50;99.90
16827;DHT22;8530;49.540;8.576;2022-11-20T07:02:50;5.50;99.90
16827;DHT22;8530;49.540;8.576;2022-11-20T07:05:16;5.50;99.90
16827;DHT22;8530;49.540;8.576;2022-11-20T07:07:43;5.50;99.90
16827;DHT22;8530;49.540;8.576;2022-11-20T07:10:11;5.50;99.90
16827;DHT22;8530;49.540;8.576;2022-11-20T07:12:37;5.50;99.90
16827;DHT22;8530;49.540;8.576;2022-11-20T07:15:07;5.50;99.90
16827;DHT22;8530;49.540;8.576;2022-11-20T07:17:33;5.50;99.90
16827;DHT22;8530;49.540;8.576;2022-11-20T07:20:01;5.50;99.90
16827;DHT22;8530;49.540;8.576;2022-11-20T07:22:29;5.50;99.90
16827;DHT22;8530;49.540;8.576;2022-11-20T07:24:56;5.60;99.90
16827;DHT22;8530;49.540;8.576;2022-11-20T07:27:22;5.60;99.90
16827;DHT22;8530;49.540;8.576;2022-11-20T07:29:49;5.60;99.90
16827;DHT22;8530;49.540;8.576;2022-11-20T07:32:17;5.70;99.90
16827;DHT22;8530;49.540;8.576;2022-11-20T07:34:44;5.80;99.90
16827;DHT22;8530;49.540;8.576;2022-11-20T07:37:12;5.80;99.90
16827;DHT22;8530;49.540;8.576;2022-11-20T07:39:40;5.90;99.90
16827;DHT22;8530;49.540;8.576;2022-11-20T07:42:08;6.00;99.90
16827;DHT22;8530;49.540;8.576;2022-11-20T07:44:34;6.10;99.90
16827;DHT22;8530;49.540;8.576;2022-11-20T07:47:01;6.10;99.90
16827;DHT22;8530;49.540;8.576;2022-11-20T07:49:29;6.20;99.90
16827;DHT22;8530;49.540;8.576;2022-11-20T07:51:56;6.20;99.90
16827;DHT22;8530;49.540;8.576;2022-11-20T07:54:23;6.30;99.90
16827;DHT22;8530;49.540;8.576;2022-11-20T07:56:51;6.30;99.90
16827;DHT22;8530;49.540;8.576;2022-11-20T07:59:17;6.40;99.90
16827;DHT22;8530;49.540;8.576;2022-11-20T08:01:44;6.50;99.90
16827;DHT22;8530;49.540;8.576;2022-11-20T08:04:19;6.60;99.90
16827;DHT22;8530;49.540;8.576;2022-11-20T08:06:47;6.70;99.90
16827;DHT22;8530;49.540;8.576;2022-11-20T08:09:14;6.70;99.90
16827;DHT22;8530;49.540;8.576;2022-11-20T08:11:43;6.90;99.90
16827;DHT22;8530;49.540;8.576;2022-11-20T08:14:27;7.00;99.90
16827;DHT22;8530;49.540;8.576;2022-11-20T08:17:00;7.00;99.90
16827;DHT22;8530;49.540;8.576;2022-11-20T08:19:27;7.10;99.90
16827;DHT22;8530;49.540;8.576;2022-11-20T08:21:55;7.10;99.90
16827;DHT22;8530;49.540;8.576;2022-11-20T08:24:22;7.20;99.90
16827;DHT22;8530;49.540;8.576;2022-11-20T08:26:50;7.20;99.90
16827;DHT22;8530;49.540;8.576;2022-11-20T08:29:17;7.10;99.90
16827;DHT22;8530;49.540;8.576;2022-11-20T08:31:46;7.10;99.90
16827;DHT22;8530;49.540;8.576;2022-11-20T08:34:12;7.00;99.90
16827;DHT22;8530;49.540;8.576;2022-11-20T08:36:39;7.00;99.90
16827;DHT22;8530;49.540;8.576;2022-11-20T08:39:13;6.90;99.90
16827;DHT22;8530;49.540;8.576;2022-11-20T08:41:40;6.90;99.90
16827;DHT22;8530;49.540;8.576;2022-11-20T08:44:08;6.80;99.90
16827;DHT22;8530;49.540;8.576;2022-11-20T08:46:36;6.70;99.90
16827;DHT22;8530;49.540;8.576;2022-11-20T08:49:03;6.70;99.90
16827;DHT22;8530;49.540;8.576;2022-11-20T08:51:30;6.60;99.90
16827;DHT22;8530;49.540;8.576;2022-11-20T08:53:57;6.50;99.90
16827;DHT22;8530;49.540;8.576;2022-11-20T08:56:31;6.40;99.90
16827;DHT22;8530;49.540;8.576;2022-11-20T09:01:54;6.30;99.90
16827;DHT22;8530;49.540;8.576;2022-11-20T09:04:21;6.30;99.90
16827;DHT22;8530;49.540;8.576;2022-11-20T09:06:47;6.30;99.90
16827;DHT22;8530;49.540;8.576;2022-11-20T09:09:16;6.30;99.90
16827;DHT22;8530;49.540;8.576;2022-11-20T09:11:45;6.30;99.90
16827;DHT22;8530;49.540;8.576;2022-11-20T09:14:12;6.30;99.90
16827;DHT22;8530;49.540;8.576;2022-11-20T09:16:39;6.40;99.90
16827;DHT22;8530;49.540;8.576;2022-11-20T09:19:05;6.40;99.90
16827;DHT22;8530;49.540;8.576;2022-11-20T09:21:32;6.40;99.90
16827;DHT22;8530;49.540;8.576;2022-11-20T09:23:59;6.40;99.90
16827;DHT22;8530;49.540;8.576;2022-11-20T09:26:27;6.40;99.90
16827;DHT22;8530;49.540;8.576;2022-11-20T09:28:55;6.40;99.90
16827;DHT22;8530;49.540;8.576;2022-11-20T09:31:23;6.50;99.90
16827;DHT22;8530;49.540;8.576;2022-11-20T09:33:51;6.50;99.90
16827;DHT22;8530;49.540;8.576;2022-11-20T09:36:18;6.50;99.90
16827;DHT22;8530;49.540;8.576;2022-11-20T09:38:45;6.50;99.90
16827;DHT22;8530;49.540;8.576;2022-11-20T09:44:18;6.50;99.90
16827;DHT22;8530;49.540;8.576;2022-11-20T09:46:53;6.50;99.90
16827;DHT22;8530;49.540;8.576;2022-11-20T09:49:29;6.60;99.90
16827;DHT22;8530;49.540;8.576;2022-11-20T09:52:13;6.60;99.90
16827;DHT22;8530;49.540;8.576;2022-11-20T09:54:45;6.60;99.90
16827;DHT22;8530;49.540;8.576;2022-11-20T09:57:17;6.70;99.90
16827;DHT22;8530;49.540;8.576;2022-11-20T09:59:50;6.80;99.90
16827;DHT22;8530;49.540;8.576;2022-11-20T10:02:27;6.80;99.90
16827;DHT22;8530;49.540;8.576;2022-11-20T10:05:00;6.90;99.90
16827;DHT22;8530;49.540;8.576;2022-11-20T10:07:32;6.90;99.90
16827;DHT22;8530;49.540;8.576;2022-11-20T10:10:01;6.90;99.90
16827;DHT22;8530;49.540;8.576;2022-11-20T10:12:36;6.90;99.90
16827;DHT22;8530;49.540;8.576;2022-11-20T10:15:22;6.90;99.90
16827;DHT22;8530;49.540;8.576;2022-11-20T10:18:02;7.00;99.90
16827;DHT22;8530;49.540;8.576;2022-11-20T10:20:43;7.10;99.90
16827;DHT22;8530;49.540;8.576;2022-11-20T10:23:33;7.00;99.90
16827;DHT22;8530;49.540;8.576;2022-11-20T10:26:17;7.00;99.90
16827;DHT22;8530;49.540;8.576;2022-11-20T10:28:54;7.10;99.90
16827;DHT22;8530;49.540;8.576;2022-11-20T10:31:30;7.10;99.90
16827;DHT22;8530;49.540;8.576;2022-11-20T10:33:59;7.10;99.90
16827;DHT22;8530;49.540;8.576;2022-11-20T10:36:28;7.10;99.90
16827;DHT22;8530;49.540;8.576;2022-11-20T10:39:03;7.10;99.90
16827;DHT22;8530;49.540;8.576;2022-11-20T10:41:37;7.20;99.90
16827;DHT22;8530;49.540;8.576;2022-11-20T10:44:12;7.20;99.90
16827;DHT22;8530;49.540;8.576;2022-11-20T10:46:44;7.30;99.90
16827;DHT22;8530;49.540;8.576;2022-11-20T10:49:14;7.40;99.90
16827;DHT22;8530;49.540;8.576;2022-11-20T10:51:51;7.40;99.90
16827;DHT22;8530;49.540;8.576;2022-11-20T10:54:23;7.40;99.90
16827;DHT22;8530;49.540;8.576;2022-11-20T10:56:54;7.50;99.90
16827;DHT22;8530;49.540;8.576;2022-11-20T10:59:50;7.60;99.90
16827;DHT22;8530;49.540;8.576;2022-11-20T11:02:23;7.70;99.90
16827;DHT22;8530;49.540;8.576;2022-11-20T11:04:51;7.80;99.90
16827;DHT22;8530;49.540;8.576;2022-11-20T11:07:22;8.00;99.90
16827;DHT22;8530;49.540;8.576;2022-11-20T11:09:52;8.20;99.90
16827;DHT22;8530;49.540;8.576;2022-11-20T11:12:20;8.30;99.90
16827;DHT22;8530;49.540;8.576;2022-11-20T11:14:49;8.30;99.90
16827;DHT22;8530;49.540;8.576;2022-11-20T11:17:29;8.30;99.90
16827;DHT22;8530;49.540;8.576;2022-11-20T11:20:01;8.30;99.90
16827;DHT22;8530;49.540;8.576;2022-11-20T11:22:29;8.30;99.90
16827;DHT22;8530;49.540;8.576;2022-11-20T11:24:57;8.40;99.90
16827;DHT22;8530;49.540;8.576;2022-11-20T11:27:25;8.30;99.90
16827;DHT22;8530;49.540;8.576;2022-11-20T11:30:12;8.20;99.90
16827;DHT22;8530;49.540;8.576;2022-11-20T11:32:41;8.10;99.90
16827;DHT22;8530;49.540;8.576;2022-11-20T11:35:20;8.10;99.90
16827;DHT22;8530;49.540;8.576;2022-11-20T11:37:48;8.00;99.90
16827;DHT22;8530;49.540;8.576;2022-11-20T11:40:19;7.90;99.90
16827;DHT22;8530;49.540;8.576;2022-11-20T11:42:57;7.90;99.90
16827;DHT22;8530;49.540;8.576;2022-11-20T11:45:24;7.80;99.90
16827;DHT22;8530;49.540;8.576;2022-11-20T11:47:54;7.80;99.90
16827;DHT22;8530;49.540;8.576;2022-11-20T11:50:24;7.80;99.90
16827;DHT22;8530;49.540;8.576;2022-11-20T11:52:58;7.90;99.90
16827;DHT22;8530;49.540;8.576;2022-11-20T11:55:31;8.00;99.90
16827;DHT22;8530;49.540;8.576;2022-11-20T11:58:11;8.10;99.90
16827;DHT22;8530;49.540;8.576;2022-11-20T12:00:47;8.20;99.90
16827;DHT22;8530;49.540;8.576;2022-11-20T12:03:20;8.30;99.90
16827;DHT22;8530;49.540;8.576;2022-11-20T12:05:51;8.40;99.90
16827;DHT22;8530;49.540;8.576;2022-11-20T12:08:24;8.60;99.90
16827;DHT22;8530;49.540;8.576;2022-11-20T12:10:56;8.70;99.90
16827;DHT22;8530;49.540;8.576;2022-11-20T12:13:43;8.70;99.90
16827;DHT22;8530;49.540;8.576;2022-11-20T12:16:14;8.60;99.90
16827;DHT22;8530;49.540;8.576;2022-11-20T12:18:43;8.50;99.90
16827;DHT22;8530;49.540;8.576;2022-11-20T12:21:19;8.50;99.90
16827;DHT22;8530;49.540;8.576;2022-11-20T12:24:23;8.40;99.90
16827;DHT22;8530;49.540;8.576;2022-11-20T12:27:03;8.50;99.90
16827;DHT22;8530;49.540;8.576;2022-11-20T12:29:41;8.50;99.90
16827;DHT22;8530;49.540;8.576;2022-11-20T12:32:30;8.50;99.90
16827;DHT22;8530;49.540;8.576;2022-11-20T12:35:14;8.50;99.90
16827;DHT22;8530;49.540;8.576;2022-11-20T12:37:59;8.50;99.90
16827;DHT22;8530;49.540;8.576;2022-11-20T12:40:38;8.50;99.90
16827;DHT22;8530;49.540;8.576;2022-11-20T12:43:13;8.50;99.90
16827;DHT22;8530;49.540;8.576;2022-11-20T12:46:13;8.50;99.90
16827;DHT22;8530;49.540;8.576;2022-11-20T12:48:50;8.50;99.90
16827;DHT22;8530;49.540;8.576;2022-11-20T12:51:42;8.40;99.90
16827;DHT22;8530;49.540;8.576;2022-11-20T12:57:16;8.20;99.90
16827;DHT22;8530;49.540;8.576;2022-11-20T13:00:06;8.20;99.90
16827;DHT22;8530;49.540;8.576;2022-11-20T13:02:41;8.10;99.90
16827;DHT22;8530;49.540;8.576;2022-11-20T13:05:19;8.10;99.90
16827;DHT22;8530;49.540;8.576;2022-11-20T13:07:51;8.10;99.90
16827;DHT22;8530;49.540;8.576;2022-11-20T13:10:22;8.10;99.90
16827;DHT22;8530;49.540;8.576;2022-11-20T13:12:54;8.20;99.90
16827;DHT22;8530;49.540;8.576;2022-11-20T13:15:40;8.20;99.90
16827;DHT22;8530;49.540;8.576;2022-11-20T13:18:11;8.40;99.90
16827;DHT22;8530;49.540;8.576;2022-11-20T13:20:42;8.40;99.90
16827;DHT22;8530;49.540;8.576;2022-11-20T13:23:22;8.50;99.90
16827;DHT22;8530;49.540;8.576;2022-11-20T13:25:49;8.60;99.90
16827;DHT22;8530;49.540;8.576;2022-11-20T13:28:27;8.80;99.90
16827;DHT22;8530;49.540;8.576;2022-11-20T13:30:55;8.80;99.90
16827;DHT22;8530;49.540;8.576;2022-11-20T13:33:27;8.80;99.90
16827;DHT22;8530;49.540;8.576;2022-11-20T13:35:56;8.80;99.90
16827;DHT22;8530;49.540;8.576;2022-11-20T13:38:25;8.80;99.90
16827;DHT22;8530;49.540;8.576;2022-11-20T13:40:54;8.90;99.90
16827;DHT22;8530;49.540;8.576;2022-11-20T13:43:26;8.90;99.90
16827;DHT22;8530;49.540;8.576;2022-11-20T13:45:57;8.90;99.90
16827;DHT22;8530;49.540;8.576;2022-11-20T13:48:29;9.00;99.90
16827;DHT22;8530;49.540;8.576;2022-11-20T13:51:09;9.10;99.90
16827;DHT22;8530;49.540;8.576;2022-11-20T13:53:53;9.20;99.90
16827;DHT22;8530;49.540;8.576;2022-11-20T13:56:26;9.30;99.90
16827;DHT22;8530;49.540;8.576;2022-11-20T13:59:02;9.40;99.90
16827;DHT22;8530;49.540;8.576;2022-11-20T14:01:33;9.50;99.90
16827;DHT22;8530;49.540;8.576;2022-11-20T14:04:01;9.50;99.90
16827;DHT22;8530;49.540;8.576;2022-11-20T14:06:39;9.50;99.90
16827;DHT22;8530;49.540;8.576;2022-11-20T14:09:12;9.50;99.90
16827;DHT22;8530;49.540;8.576;2022-11-20T14:11:46;9.50;99.90
16827;DHT22;8530;49.540;8.576;2022-11-20T14:14:16;9.50;99.90
16827;DHT22;8530;49.540;8.576;2022-11-20T14:16:44;9.60;99.90
16827;DHT22;8530;49.540;8.576;2022-11-20T14:19:26;9.60;99.90
16827;DHT22;8530;49.540;8.576;2022-11-20T14:22:09;9.70;99.90
16827;DHT22;8530;49.540;8.576;2022-11-20T14:24:37;9.80;99.90
16827;DHT22;8530;49.540;8.576;2022-11-20T14:27:04;9.90;99.90
16827;DHT22;8530;49.540;8.576;2022-11-20T14:29:35;10.00;99.90
16827;DHT22;8530;49.540;8.576;2022-11-20T14:32:03;9.90;99.90
16827;DHT22;8530;49.540;8.576;2022-11-20T14:34:31;9.90;99.90
16827;DHT22;8530;49.540;8.576;2022-11-20T14:37:00;9.80;99.90
16827;DHT22;8530;49.540;8.576;2022-11-20T14:39:31;9.70;99.90
16827;DHT22;8530;49.540;8.576;2022-11-20T14:42:00;9.50;99.90
16827;DHT22;8530;49.540;8.576;2022-11-20T14:44:30;9.40;99.90
16827;DHT22;8530;49.540;8.576;2022-11-20T14:46:59;9.30;99.90
16827;DHT22;8530;49.540;8.576;2022-11-20T14:49:26;9.20;99.90
16827;DHT22;8530;49.540;8.576;2022-11-20T14:52:02;9.10;99.90
16827;DHT22;8530;49.540;8.576;2022-11-20T14:54:44;9.00;99.90
16827;DHT22;8530;49.540;8.576;2022-11-20T14:57:24;9.00;99.90
16827;DHT22;8530;49.540;8.576;2022-11-20T15:00:07;8.90;99.90
16827;DHT22;8530;49.540;8.576;2022-11-20T15:02:34;8.80;99.90
16827;DHT22;8530;49.540;8.576;2022-11-20T15:05:05;8.80;99.90
16827;DHT22;8530;49.540;8.576;2022-11-20T15:07:36;8.70;99.90
16827;DHT22;8530;49.540;8.576;2022-11-20T15:10:08;8.70;99.90
16827;DHT22;8530;49.540;8.576;2022-11-20T15:12:39;8.60;99.90
16827;DHT22;8530;49.540;8.576;2022-11-20T15:15:11;8.60;99.90
16827;DHT22;8530;49.540;8.576;2022-11-20T15:17:40;8.60;99.90
16827;DHT22;8530;49.540;8.576;2022-11-20T15:20:13;8.50;99.90
16827;DHT22;8530;49.540;8.576;2022-11-20T15:22:40;8.40;99.90
16827;DHT22;8530;49.540;8.576;2022-11-20T15:25:13;8.40;99.90
16827;DHT22;8530;49.540;8.576;2022-11-20T15:27:41;8.40;99.90
16827;DHT22;8530;49.540;8.576;2022-11-20T15:30:17;8.40;99.90
16827;DHT22;8530;49.540;8.576;2022-11-20T15:32:44;8.30;99.90
16827;DHT22;8530;49.540;8.576;2022-11-20T15:35:12;8.30;99.90
16827;DHT22;8530;49.540;8.576;2022-11-20T15:37:39;8.40;99.90
16827;DHT22;8530;49.540;8.576;2022-11-20T15:40:08;8.30;99.90
16827;DHT22;8530;49.540;8.576;2022-11-20T15:42:35;8.30;99.90
16827;DHT22;8530;49.540;8.576;2022-11-20T15:45:04;8.20;99.90
16827;DHT22;8530;49.540;8.576;2022-11-20T15:47:33;8.20;99.90
16827;DHT22;8530;49.540;8.576;2022-11-20T15:50:00;8.20;99.90
16827;DHT22;8530;49.540;8.576;2022-11-20T15:52:28;8.20;99.90
16827;DHT22;8530;49.540;8.576;2022-11-20T15:54:55;8.10;99.90
16827;DHT22;8530;49.540;8.576;2022-11-20T15:57:22;8.10;99.90
16827;DHT22;8530;49.540;8.576;2022-11-20T15:59:49;8.10;99.90
16827;DHT22;8530;49.540;8.576;2022-11-20T16:02:17;8.00;99.90
16827;DHT22;8530;49.540;8.576;2022-11-20T16:04:45;8.10;99.90
16827;DHT22;8530;49.540;8.576;2022-11-20T16:07:11;8.10;99.90
16827;DHT22;8530;49.540;8.576;2022-11-20T16:09:38;8.10;99.90
16827;DHT22;8530;49.540;8.576;2022-11-20T16:12:10;8.10;99.90
16827;DHT22;8530;49.540;8.576;2022-11-20T16:14:58;8.10;99.90
16827;DHT22;8530;49.540;8.576;2022-11-20T16:17:43;8.20;99.90
16827;DHT22;8530;49.540;8.576;2022-11-20T16:20:11;8.20;99.90
16827;DHT22;8530;49.540;8.576;2022-11-20T16:22:38;8.20;99.90
16827;DHT22;8530;49.540;8.576;2022-11-20T16:25:05;8.20;99.90
16827;DHT22;8530;49.540;8.576;2022-11-20T16:27:32;8.20;99.90
16827;DHT22;8530;49.540;8.576;2022-11-20T16:29:59;8.20;99.90
16827;DHT22;8530;49.540;8.576;2022-11-20T16:32:26;8.20;99.90